Time;durP1;ratioP1;P1;durP2;ratioP2;P2;SDS_P1;SDS_P2;PMS_P1;PMS_P2;Temp;Humidity;BMP_temperature;BMP_pressure;BME280_temperature;BME280_humidity;BME280_pressure;Samples;Min_cycle;Max_cycle;Signal;HPM_P1;HPM_P2
2023/04/23 00:00:50;;;;;;;36.13;28.55;;;;;;;;;;5046814;28;20031;-66
2023/04/23 00:03:18;;;;;;;35.10;29.35;;;;;;;;;;5045882;28;20165;-66
2023/04/23 00:05:44;;;;;;;34.22;28.83;;;;;;;;;;5046062;28;20016;-66
2023/04/23 00:08:09;;;;;;;33.75;27.55;;;;;;;;;;5045803;28;20039;-66
2023/04/23 00:10:35;;;;;;;33.00;27.52;;;;;;;;;;5045136;28;21168;-66
2023/04/23 00:13:01;;;;;;;34.03;27.95;;;;;;;;;;5044099;28;20035;-66
2023/04/23 00:15:26;;;;;;;33.03;27.52;;;;;;;;;;5047608;28;20040;-66
2023/04/23 00:17:51;;;;;;;33.75;27.13;;;;;;;;;;5045326;28;20020;-66
2023/04/23 00:20:17;;;;;;;33.03;27.15;;;;;;;;;;5046148;28;20131;-66
2023/04/23 00:22:43;;;;;;;36.88;26.73;;;;;;;;;;5045020;28;20027;-66
2023/04/23 00:25:11;;;;;;;32.30;28.77;;;;;;;;;;5045983;28;20872;-66
2023/04/23 00:27:36;;;;;;;32.53;29.02;;;;;;;;;;5045471;28;20118;-66
2023/04/23 00:30:02;;;;;;;37.17;30.73;;;;;;;;;;5046243;28;20024;-66
2023/04/23 00:32:28;;;;;;;37.28;31.33;;;;;;;;;;5045716;28;20027;-66
2023/04/23 00:34:54;;;;;;;42.45;35.58;;;;;;;;;;5042417;28;20130;-66
2023/04/23 00:37:19;;;;;;;41.28;34.33;;;;;;;;;;5045683;28;20197;-66
2023/04/23 00:39:44;;;;;;;45.33;35.65;;;;;;;;;;5036759;28;20036;-66
2023/04/23 00:42:15;;;;;;;41.03;34.58;;;;;;;;;;5045632;28;20190;-66
2023/04/23 00:44:41;;;;;;;48.97;36.65;;;;;;;;;;5044578;28;20131;-66
2023/04/23 00:47:07;;;;;;;41.63;36.83;;;;;;;;;;5046386;28;20971;-66
2023/04/23 00:49:33;;;;;;;45.42;36.88;;;;;;;;;;5045131;28;20894;-66
2023/04/23 00:51:59;;;;;;;47.03;35.85;;;;;;;;;;5045802;28;20032;-66
2023/04/23 00:54:24;;;;;;;46.92;36.38;;;;;;;;;;5040504;28;20060;-66
2023/04/23 00:56:50;;;;;;;47.00;38.40;;;;;;;;;;5040397;28;20020;-66
2023/04/23 00:59:15;;;;;;;41.60;36.13;;;;;;;;;;5034457;28;20051;-66
2023/04/23 01:01:41;;;;;;;49.35;36.40;;;;;;;;;;5043713;28;20024;-66
2023/04/23 01:04:08;;;;;;;40.67;35.55;;;;;;;;;;5035368;28;20039;-66
2023/04/23 01:06:33;;;;;;;35.97;30.75;;;;;;;;;;5039082;28;20033;-66
2023/04/23 01:08:59;;;;;;;42.80;32.33;;;;;;;;;;5031679;28;21029;-66
2023/04/23 01:11:24;;;;;;;39.25;30.83;;;;;;;;;;5043961;28;21093;-66
2023/04/23 01:13:50;;;;;;;33.05;29.63;;;;;;;;;;5042488;28;20030;-66
2023/04/23 01:16:15;;;;;;;40.92;32.85;;;;;;;;;;5033693;28;20024;-65
2023/04/23 01:18:40;;;;;;;35.50;30.15;;;;;;;;;;5045048;28;20039;-66
2023/04/23 01:21:06;;;;;;;34.92;29.60;;;;;;;;;;5047818;28;20028;-66
2023/04/23 01:23:31;;;;;;;34.45;30.30;;;;;;;;;;5046626;28;20024;-66
2023/04/23 01:25:57;;;;;;;35.78;29.15;;;;;;;;;;5049387;28;20028;-66
2023/04/23 01:28:23;;;;;;;35.88;28.50;;;;;;;;;;5053014;28;20102;-66
2023/04/23 01:30:48;;;;;;;34.55;28.73;;;;;;;;;;5045530;28;20121;-66
2023/04/23 01:33:14;;;;;;;34.85;30.58;;;;;;;;;;5034212;28;20131;-66
2023/04/23 01:35:40;;;;;;;34.22;28.52;;;;;;;;;;5042329;28;20024;-66
2023/04/23 01:38:07;;;;;;;35.22;29.25;;;;;;;;;;5045421;28;20066;-66
2023/04/23 01:40:32;;;;;;;32.72;28.45;;;;;;;;;;5044902;28;20094;-66
2023/04/23 01:42:58;;;;;;;40.65;31.00;;;;;;;;;;5043856;28;20885;-66
2023/04/23 01:45:24;;;;;;;34.55;28.92;;;;;;;;;;5045032;28;20030;-65
2023/04/23 01:47:49;;;;;;;42.95;30.45;;;;;;;;;;5043375;28;20038;-66
2023/04/23 01:50:15;;;;;;;38.17;29.63;;;;;;;;;;5046521;28;20866;-66
2023/04/23 01:52:41;;;;;;;37.92;30.00;;;;;;;;;;5045578;28;20044;-65
2023/04/23 01:55:06;;;;;;;35.70;29.50;;;;;;;;;;5043876;28;20020;-65
2023/04/23 01:57:32;;;;;;;40.72;31.52;;;;;;;;;;5043464;28;20024;-65
2023/04/23 02:00:07;;;;;;;36.55;31.10;;;;;;;;;;5044051;28;20020;-65
2023/04/23 02:02:33;;;;;;;41.38;28.85;;;;;;;;;;5033126;28;20063;-65
2023/04/23 02:05:00;;;;;;;40.90;28.52;;;;;;;;;;5054208;28;20917;-65
2023/04/23 02:07:26;;;;;;;35.63;30.60;;;;;;;;;;5042281;28;20591;-65
2023/04/23 02:09:51;;;;;;;41.97;30.70;;;;;;;;;;5044590;28;20028;-65
2023/04/23 02:12:16;;;;;;;39.08;30.92;;;;;;;;;;5044146;28;20042;-66
2023/04/23 02:14:42;;;;;;;29.92;26.25;;;;;;;;;;5032204;28;21048;-66
2023/04/23 02:17:07;;;;;;;32.92;28.25;;;;;;;;;;5043266;28;20079;-67
2023/04/23 02:19:34;;;;;;;34.45;27.98;;;;;;;;;;5043364;28;20861;-66
2023/04/23 02:22:00;;;;;;;33.33;27.02;;;;;;;;;;5027732;28;20866;-66
2023/04/23 02:24:25;;;;;;;32.90;28.95;;;;;;;;;;5040455;28;20036;-66
2023/04/23 02:26:51;;;;;;;33.15;28.30;;;;;;;;;;5044131;28;20941;-65
2023/04/23 02:29:16;;;;;;;36.17;30.70;;;;;;;;;;5044254;28;20022;-66
2023/04/23 02:31:41;;;;;;;33.50;28.20;;;;;;;;;;5038989;28;20844;-66
2023/04/23 02:34:07;;;;;;;37.25;29.77;;;;;;;;;;5031310;28;20049;-66
2023/04/23 02:36:32;;;;;;;35.80;29.75;;;;;;;;;;5042650;28;20217;-66
2023/04/23 02:38:57;;;;;;;32.97;28.92;;;;;;;;;;5043921;28;20085;-66
2023/04/23 02:41:22;;;;;;;32.05;27.52;;;;;;;;;;5042859;28;20035;-66
2023/04/23 02:43:48;;;;;;;32.33;28.83;;;;;;;;;;5042197;28;20028;-66
2023/04/23 02:46:13;;;;;;;30.95;26.60;;;;;;;;;;5042690;28;20883;-66
2023/04/23 02:48:39;;;;;;;30.42;26.23;;;;;;;;;;5044452;28;20043;-66
2023/04/23 02:51:05;;;;;;;29.85;26.70;;;;;;;;;;5044528;28;20219;-66
2023/04/23 02:53:31;;;;;;;33.60;27.20;;;;;;;;;;5036453;28;20983;-66
2023/04/23 02:55:56;;;;;;;33.20;25.88;;;;;;;;;;5035907;28;20314;-66
2023/04/23 02:58:21;;;;;;;30.58;26.42;;;;;;;;;;5043407;28;20123;-66
2023/04/23 03:00:46;;;;;;;34.30;24.83;;;;;;;;;;5043314;28;20900;-66
2023/04/23 03:03:12;;;;;;;30.05;26.58;;;;;;;;;;5042668;28;20024;-66
2023/04/23 03:05:38;;;;;;;29.20;24.73;;;;;;;;;;5042990;28;20844;-66
2023/04/23 03:08:03;;;;;;;31.30;24.17;;;;;;;;;;5042251;28;20078;-66
2023/04/23 03:10:28;;;;;;;27.33;22.52;;;;;;;;;;5055195;28;20135;-66
2023/04/23 03:12:55;;;;;;;30.83;23.42;;;;;;;;;;5044039;28;20828;-66
2023/04/23 03:15:20;;;;;;;29.40;23.60;;;;;;;;;;5040856;28;20024;-66
2023/04/23 03:17:45;;;;;;;25.85;21.75;;;;;;;;;;5043295;28;20959;-65
2023/04/23 03:20:11;;;;;;;24.08;19.85;;;;;;;;;;5045921;28;20028;-66
2023/04/23 03:22:36;;;;;;;28.70;22.30;;;;;;;;;;5045192;28;20896;-66
2023/04/23 03:25:02;;;;;;;34.03;20.80;;;;;;;;;;5045333;28;20081;-66
2023/04/23 03:27:28;;;;;;;24.20;21.60;;;;;;;;;;5047653;28;20012;-66
2023/04/23 03:29:53;;;;;;;26.98;20.85;;;;;;;;;;5045804;28;20089;-66
2023/04/23 03:32:18;;;;;;;24.15;20.65;;;;;;;;;;5043969;28;20032;-65
2023/04/23 03:34:44;;;;;;;29.40;21.55;;;;;;;;;;5043016;28;20036;-66
2023/04/23 03:37:09;;;;;;;25.75;21.75;;;;;;;;;;5045909;28;20143;-66
2023/04/23 03:39:34;;;;;;;26.08;22.15;;;;;;;;;;5045826;28;20931;-66
2023/04/23 03:42:00;;;;;;;25.23;22.52;;;;;;;;;;5051785;28;20103;-66
2023/04/23 03:44:26;;;;;;;24.50;21.30;;;;;;;;;;5050907;28;20970;-66
2023/04/23 03:46:51;;;;;;;29.92;21.77;;;;;;;;;;5052616;28;20077;-66
2023/04/23 03:49:16;;;;;;;24.10;21.15;;;;;;;;;;5054408;28;20074;-66
2023/04/23 03:51:41;;;;;;;24.45;20.88;;;;;;;;;;5068026;28;20028;-66
2023/04/23 03:54:07;;;;;;;24.77;20.95;;;;;;;;;;5046530;28;20078;-65
2023/04/23 03:56:32;;;;;;;25.42;20.20;;;;;;;;;;5047231;28;20936;-66
2023/04/23 03:58:58;;;;;;;23.73;19.63;;;;;;;;;;5046086;28;20012;-66
2023/04/23 04:01:23;;;;;;;27.08;19.92;;;;;;;;;;5045046;28;20024;-66
2023/04/23 04:03:48;;;;;;;23.15;20.15;;;;;;;;;;5046816;28;20035;-66
2023/04/23 04:06:14;;;;;;;24.17;18.67;;;;;;;;;;5046649;28;20898;-65
2023/04/23 04:08:39;;;;;;;23.45;18.77;;;;;;;;;;5044194;28;20126;-66
2023/04/23 04:11:05;;;;;;;22.00;17.88;;;;;;;;;;5043450;28;20028;-65
2023/04/23 04:13:30;;;;;;;23.00;19.40;;;;;;;;;;5036289;28;20016;-65
2023/04/23 04:15:55;;;;;;;21.17;18.88;;;;;;;;;;5046127;28;20873;-65
2023/04/23 04:18:21;;;;;;;24.88;19.35;;;;;;;;;;5043270;28;20023;-66
2023/04/23 04:20:46;;;;;;;22.25;17.67;;;;;;;;;;5041537;28;20082;-65
2023/04/23 04:23:11;;;;;;;21.65;17.48;;;;;;;;;;5044035;28;20817;-65
2023/04/23 04:25:38;;;;;;;19.33;17.27;;;;;;;;;;5045973;28;20214;-65
2023/04/23 04:28:04;;;;;;;19.38;16.58;;;;;;;;;;5033381;28;20135;-65
2023/04/23 04:30:29;;;;;;;20.75;17.17;;;;;;;;;;5045371;28;20027;-65
2023/04/23 04:32:55;;;;;;;20.23;16.33;;;;;;;;;;5043162;28;20036;-65
2023/04/23 04:35:20;;;;;;;18.25;15.98;;;;;;;;;;5049976;28;20920;-66
2023/04/23 04:37:45;;;;;;;17.80;15.82;;;;;;;;;;5044085;28;20036;-66
2023/04/23 04:40:11;;;;;;;21.40;15.40;;;;;;;;;;5037502;28;20078;-65
2023/04/23 04:42:38;;;;;;;20.00;15.60;;;;;;;;;;5036179;28;20819;-65
2023/04/23 04:45:04;;;;;;;16.98;15.02;;;;;;;;;;5044792;28;20034;-65
2023/04/23 04:47:31;;;;;;;18.42;14.20;;;;;;;;;;5044832;28;20032;-65
2023/04/23 04:49:56;;;;;;;17.13;14.75;;;;;;;;;;5058194;28;20028;-65
2023/04/23 04:52:22;;;;;;;19.02;14.68;;;;;;;;;;5045158;28;20170;-65
2023/04/23 04:54:47;;;;;;;19.90;14.65;;;;;;;;;;5046634;28;20135;-65
2023/04/23 04:57:13;;;;;;;16.45;13.88;;;;;;;;;;5047428;28;20032;-65
2023/04/23 04:59:38;;;;;;;18.83;14.68;;;;;;;;;;5039341;28;20385;-65
2023/04/23 05:02:03;;;;;;;16.30;13.23;;;;;;;;;;5046255;28;20066;-65
2023/04/23 05:04:28;;;;;;;19.15;14.40;;;;;;;;;;5046871;28;20056;-64
2023/04/23 05:06:54;;;;;;;16.15;13.65;;;;;;;;;;5046786;28;20250;-64
2023/04/23 05:09:19;;;;;;;15.82;13.45;;;;;;;;;;5042812;28;20039;-64
2023/04/23 05:11:44;;;;;;;17.30;13.38;;;;;;;;;;5044183;28;20094;-65
2023/04/23 05:14:10;;;;;;;16.58;13.77;;;;;;;;;;5046809;28;20412;-65
2023/04/23 05:16:35;;;;;;;15.98;14.25;;;;;;;;;;5046577;28;20126;-65
2023/04/23 05:19:00;;;;;;;17.80;13.45;;;;;;;;;;5047033;28;20812;-65
2023/04/23 05:21:26;;;;;;;20.70;14.23;;;;;;;;;;5018796;28;20033;-65
2023/04/23 05:23:52;;;;;;;19.50;14.10;;;;;;;;;;5043695;28;20893;-64
2023/04/23 05:26:18;;;;;;;15.45;13.20;;;;;;;;;;5045259;28;20903;-64
2023/04/23 05:28:43;;;;;;;15.27;11.73;;;;;;;;;;5042171;28;20031;-64
2023/04/23 05:31:08;;;;;;;13.68;12.27;;;;;;;;;;5045238;28;20062;-65
2023/04/23 05:33:34;;;;;;;20.58;13.82;;;;;;;;;;5033510;28;20874;-67
2023/04/23 05:35:59;;;;;;;17.00;12.85;;;;;;;;;;5046430;28;20036;-64
2023/04/23 05:38:24;;;;;;;15.88;12.13;;;;;;;;;;5033264;28;20091;-64
2023/04/23 05:40:50;;;;;;;16.75;13.02;;;;;;;;;;5047079;28;20024;-64
2023/04/23 05:43:15;;;;;;;19.13;13.70;;;;;;;;;;5046999;28;20081;-65
2023/04/23 05:45:40;;;;;;;14.73;12.20;;;;;;;;;;5032856;28;20029;-66
2023/04/23 05:48:06;;;;;;;18.05;13.40;;;;;;;;;;5044512;28;20031;-65
2023/04/23 05:50:31;;;;;;;18.75;13.63;;;;;;;;;;5036901;28;20024;-64
2023/04/23 05:52:56;;;;;;;17.60;12.75;;;;;;;;;;5046381;28;20034;-64
2023/04/23 05:55:22;;;;;;;18.30;12.63;;;;;;;;;;5044833;28;20151;-65
2023/04/23 05:57:48;;;;;;;13.93;11.23;;;;;;;;;;5043155;28;20041;-64
2023/04/23 06:00:13;;;;;;;11.65;10.27;;;;;;;;;;5045697;28;20814;-64
2023/04/23 06:02:39;;;;;;;12.07;9.57;;;;;;;;;;5045575;28;20023;-65
2023/04/23 06:05:05;;;;;;;14.27;9.88;;;;;;;;;;5042503;28;20174;-64
2023/04/23 06:07:31;;;;;;;12.30;8.77;;;;;;;;;;5029493;28;20027;-64
2023/04/23 06:09:56;;;;;;;11.05;8.88;;;;;;;;;;5029706;28;20021;-64
2023/04/23 06:12:21;;;;;;;13.43;8.63;;;;;;;;;;5040198;28;20020;-65
2023/04/23 06:14:46;;;;;;;15.13;8.52;;;;;;;;;;5033634;28;20031;-64
2023/04/23 06:17:12;;;;;;;9.68;6.93;;;;;;;;;;5045014;28;20925;-64
2023/04/23 06:19:37;;;;;;;10.70;6.80;;;;;;;;;;5045014;28;20024;-65
2023/04/23 06:22:02;;;;;;;11.70;6.82;;;;;;;;;;5041267;28;20809;-64
2023/04/23 06:24:28;;;;;;;9.93;6.15;;;;;;;;;;5061149;28;20023;-64
2023/04/23 06:26:53;;;;;;;8.70;6.07;;;;;;;;;;5039356;28;20025;-64
2023/04/23 06:29:18;;;;;;;8.52;5.70;;;;;;;;;;5044266;28;20027;-64
2023/04/23 06:31:43;;;;;;;10.80;6.10;;;;;;;;;;5043479;28;20035;-64
2023/04/23 06:34:09;;;;;;;14.02;5.10;;;;;;;;;;5045625;28;20028;-64
2023/04/23 06:36:34;;;;;;;7.45;4.82;;;;;;;;;;5055281;28;20027;-65
2023/04/23 06:39:00;;;;;;;9.18;5.53;;;;;;;;;;5078465;28;20016;-64
2023/04/23 06:41:25;;;;;;;8.23;5.72;;;;;;;;;;5046609;28;20866;-64
2023/04/23 06:43:50;;;;;;;4.97;3.95;;;;;;;;;;5040900;28;20079;-65
2023/04/23 06:46:15;;;;;;;7.78;4.80;;;;;;;;;;5040502;28;20085;-65
2023/04/23 06:48:41;;;;;;;7.75;5.03;;;;;;;;;;5044260;28;20048;-64
2023/04/23 06:51:06;;;;;;;9.63;5.07;;;;;;;;;;5043744;28;20837;-64
2023/04/23 06:53:32;;;;;;;7.15;4.70;;;;;;;;;;5043265;28;20030;-65
2023/04/23 06:55:57;;;;;;;7.47;4.43;;;;;;;;;;5046564;28;20818;-64
2023/04/23 06:58:30;;;;;;;9.25;5.15;;;;;;;;;;5035701;28;20095;-64
2023/04/23 07:00:55;;;;;;;7.63;4.18;;;;;;;;;;5047969;28;20020;-65
2023/04/23 07:03:21;;;;;;;8.80;4.72;;;;;;;;;;5043149;28;20283;-65
2023/04/23 07:05:46;;;;;;;6.32;3.83;;;;;;;;;;5047853;28;20057;-65
2023/04/23 07:08:12;;;;;;;8.40;4.38;;;;;;;;;;5049961;28;20020;-65
2023/04/23 07:10:37;;;;;;;7.88;4.32;;;;;;;;;;5045459;28;20056;-65
2023/04/23 07:13:02;;;;;;;8.50;4.13;;;;;;;;;;5048634;28;20024;-65
2023/04/23 07:15:27;;;;;;;7.13;4.80;;;;;;;;;;5048390;28;20102;-65
2023/04/23 07:17:53;;;;;;;6.45;3.90;;;;;;;;;;5044754;28;20058;-65
2023/04/23 07:20:18;;;;;;;6.97;4.22;;;;;;;;;;5044407;28;20123;-65
2023/04/23 07:22:44;;;;;;;7.25;4.03;;;;;;;;;;5064293;28;20867;-65
2023/04/23 07:25:10;;;;;;;8.55;4.18;;;;;;;;;;5065367;28;20743;-65
2023/04/23 07:27:36;;;;;;;5.80;3.58;;;;;;;;;;5060357;28;20023;-65
2023/04/23 07:30:01;;;;;;;6.72;3.70;;;;;;;;;;5070932;28;20063;-65
2023/04/23 07:32:26;;;;;;;13.65;4.22;;;;;;;;;;5084412;28;20028;-65
2023/04/23 07:34:53;;;;;;;6.10;3.55;;;;;;;;;;5074417;28;20031;-65
2023/04/23 07:37:18;;;;;;;6.63;3.65;;;;;;;;;;5071760;28;20024;-65
2023/04/23 07:39:43;;;;;;;9.85;3.67;;;;;;;;;;5055734;28;20020;-66
2023/04/23 07:42:08;;;;;;;7.45;3.53;;;;;;;;;;5039660;28;20046;-65
2023/04/23 07:44:34;;;;;;;5.97;3.03;;;;;;;;;;5045516;28;20105;-65
2023/04/23 07:46:59;;;;;;;7.57;3.47;;;;;;;;;;5050975;28;20024;-65
2023/04/23 07:49:24;;;;;;;9.57;3.95;;;;;;;;;;5062066;28;20529;-65
2023/04/23 07:51:50;;;;;;;8.38;3.53;;;;;;;;;;5071932;28;20038;-65
2023/04/23 07:54:15;;;;;;;9.63;4.28;;;;;;;;;;5067511;28;20036;-66
2023/04/23 07:56:40;;;;;;;7.63;2.95;;;;;;;;;;5047454;28;20828;-64
2023/04/23 07:59:06;;;;;;;7.88;3.85;;;;;;;;;;5063665;28;20035;-63
2023/04/23 08:01:31;;;;;;;9.13;3.33;;;;;;;;;;5063275;28;20024;-65
2023/04/23 08:03:59;;;;;;;7.68;3.65;;;;;;;;;;5069187;28;20032;-64
2023/04/23 08:06:25;;;;;;;7.50;3.28;;;;;;;;;;5054063;28;20023;-65
2023/04/23 08:08:51;;;;;;;8.35;3.15;;;;;;;;;;5051898;28;20061;-64
2023/04/23 08:11:16;;;;;;;6.38;2.67;;;;;;;;;;5050062;28;20060;-64
2023/04/23 08:13:41;;;;;;;6.22;2.70;;;;;;;;;;5052822;28;20736;-64
2023/04/23 08:16:07;;;;;;;5.45;2.35;;;;;;;;;;5074656;28;20783;-64
2023/04/23 08:18:32;;;;;;;11.68;2.92;;;;;;;;;;5081839;28;20024;-65
2023/04/23 08:20:58;;;;;;;8.07;3.30;;;;;;;;;;5056975;28;20143;-64
2023/04/23 08:23:23;;;;;;;10.98;3.17;;;;;;;;;;5058463;28;20877;-64
2023/04/23 08:25:49;;;;;;;7.03;2.55;;;;;;;;;;5046180;28;20024;-66
2023/04/23 08:28:14;;;;;;;6.28;3.22;;;;;;;;;;5065944;28;20809;-65
2023/04/23 08:30:40;;;;;;;10.18;3.22;;;;;;;;;;5058744;28;20543;-65
2023/04/23 08:33:05;;;;;;;11.10;3.05;;;;;;;;;;5054806;28;20020;-63
2023/04/23 08:35:31;;;;;;;8.70;3.03;;;;;;;;;;5037924;28;20455;-63
2023/04/23 08:37:56;;;;;;;8.43;3.33;;;;;;;;;;5048535;28;20827;-65
2023/04/23 08:40:21;;;;;;;7.75;3.42;;;;;;;;;;5059589;28;20020;-64
2023/04/23 08:43:00;;;;;;;10.45;3.00;;;;;;;;;;5062243;28;20070;-64
2023/04/23 08:45:25;;;;;;;7.20;3.15;;;;;;;;;;5068625;28;20020;-65
2023/04/23 08:47:51;;;;;;;12.57;3.78;;;;;;;;;;5067882;28;20033;-64
2023/04/23 08:50:17;;;;;;;4.18;2.25;;;;;;;;;;5074593;28;20036;-65
2023/04/23 08:53:00;;;;;;;7.88;2.78;;;;;;;;;;5075799;28;20042;-63
2023/04/23 08:55:25;;;;;;;5.75;2.67;;;;;;;;;;5070733;28;20363;-63
2023/04/23 08:57:51;;;;;;;10.88;3.42;;;;;;;;;;5059054;28;20512;-66
2023/04/23 09:00:21;;;;;;;8.68;2.45;;;;;;;;;;5057599;28;20077;-64
2023/04/23 09:02:47;;;;;;;9.50;2.83;;;;;;;;;;5060465;28;20026;-64
2023/04/23 09:05:13;;;;;;;5.05;2.45;;;;;;;;;;5074717;28;20032;-64
2023/04/23 09:07:38;;;;;;;5.45;2.00;;;;;;;;;;5078736;28;20046;-65
2023/04/23 09:10:07;;;;;;;5.07;1.85;;;;;;;;;;5077316;28;20841;-64
2023/04/23 09:12:37;;;;;;;6.75;3.17;;;;;;;;;;5068938;28;20023;-64
2023/04/23 09:15:09;;;;;;;5.13;2.85;;;;;;;;;;5056322;28;20298;-63
2023/04/23 09:17:35;;;;;;;7.53;2.92;;;;;;;;;;5061674;28;20468;-63
2023/04/23 09:20:01;;;;;;;4.90;2.17;;;;;;;;;;5053240;28;20032;-63
2023/04/23 09:22:40;;;;;;;6.25;3.05;;;;;;;;;;5064216;28;20586;-64
2023/04/23 09:25:06;;;;;;;3.92;1.85;;;;;;;;;;5061658;28;20058;-64
2023/04/23 09:27:31;;;;;;;8.55;2.95;;;;;;;;;;5071942;28;20225;-64
2023/04/23 09:29:58;;;;;;;8.90;2.33;;;;;;;;;;5059510;28;20857;-64
2023/04/23 09:32:30;;;;;;;6.60;3.15;;;;;;;;;;5053926;28;20365;-65
2023/04/23 09:34:55;;;;;;;6.35;2.60;;;;;;;;;;5084248;28;20047;-66
2023/04/23 09:37:24;;;;;;;6.65;2.10;;;;;;;;;;5061191;28;20133;-66
2023/04/23 09:39:52;;;;;;;4.45;2.42;;;;;;;;;;5052309;28;20746;-66
2023/04/23 09:42:17;;;;;;;7.15;2.38;;;;;;;;;;5043010;28;20032;-67
2023/04/23 09:44:42;;;;;;;6.18;2.10;;;;;;;;;;5044767;28;20881;-66
2023/04/23 09:47:08;;;;;;;7.03;2.88;;;;;;;;;;5043399;28;20055;-65
2023/04/23 09:49:54;;;;;;;4.63;2.15;;;;;;;;;;5043973;28;20120;-66
2023/04/23 09:52:21;;;;;;;7.68;2.55;;;;;;;;;;5058697;28;20039;-65
2023/04/23 09:54:47;;;;;;;5.55;2.28;;;;;;;;;;5082306;28;20067;-66
2023/04/23 09:57:14;;;;;;;6.95;2.10;;;;;;;;;;5074546;28;20036;-63
2023/04/23 09:59:40;;;;;;;5.88;2.28;;;;;;;;;;5081420;28;20144;-62
2023/04/23 10:02:06;;;;;;;6.13;2.45;;;;;;;;;;5083021;28;20031;-66
2023/04/23 10:04:32;;;;;;;4.80;2.22;;;;;;;;;;5082495;28;20043;-64
2023/04/23 10:06:59;;;;;;;3.97;1.63;;;;;;;;;;5082811;28;20401;-64
2023/04/23 10:09:24;;;;;;;4.78;2.08;;;;;;;;;;5080904;28;20032;-64
2023/04/23 10:11:51;;;;;;;10.45;2.95;;;;;;;;;;5079930;28;20899;-65
2023/04/23 10:14:16;;;;;;;6.03;2.38;;;;;;;;;;5083496;28;20032;-64
2023/04/23 10:16:43;;;;;;;6.10;1.77;;;;;;;;;;5083665;28;20016;-64
2023/04/23 10:19:10;;;;;;;4.68;2.15;;;;;;;;;;5083034;28;20035;-63
2023/04/23 10:21:35;;;;;;;5.00;1.88;;;;;;;;;;5077247;28;20806;-65
2023/04/23 10:24:01;;;;;;;5.68;1.77;;;;;;;;;;5075773;28;20020;-65
2023/04/23 10:26:26;;;;;;;5.05;2.15;;;;;;;;;;5077036;28;20028;-65
2023/04/23 10:28:53;;;;;;;6.30;2.13;;;;;;;;;;5079170;28;20035;-65
2023/04/23 10:31:19;;;;;;;4.68;2.00;;;;;;;;;;5080129;28;20028;-65
2023/04/23 10:33:47;;;;;;;5.28;2.22;;;;;;;;;;5079008;28;20466;-66
2023/04/23 10:36:13;;;;;;;4.53;1.60;;;;;;;;;;5078724;28;20028;-64
2023/04/23 10:38:40;;;;;;;3.92;1.83;;;;;;;;;;5078641;28;20036;-61
2023/04/23 10:41:06;;;;;;;4.53;1.83;;;;;;;;;;5077014;28;20036;-62
2023/04/23 10:43:31;;;;;;;5.57;1.83;;;;;;;;;;5074388;28;20020;-63
2023/04/23 10:45:57;;;;;;;2.58;1.30;;;;;;;;;;5066150;28;20090;-63
2023/04/23 10:48:22;;;;;;;6.88;1.90;;;;;;;;;;5077003;28;20023;-65
2023/04/23 10:50:55;;;;;;;9.98;2.40;;;;;;;;;;5072902;28;20033;-63
2023/04/23 10:53:21;;;;;;;4.17;1.83;;;;;;;;;;5078966;28;20099;-64
2023/04/23 10:55:46;;;;;;;4.97;1.85;;;;;;;;;;5080734;28;20326;-63
2023/04/23 10:58:11;;;;;;;4.03;1.73;;;;;;;;;;5082129;28;20524;-63
2023/04/23 11:00:40;;;;;;;4.45;1.65;;;;;;;;;;5077620;28;20122;-62
2023/04/23 11:03:25;;;;;;;3.72;1.70;;;;;;;;;;5077602;28;20111;-63
2023/04/23 11:05:51;;;;;;;7.95;2.13;;;;;;;;;;5079482;28;20051;-64
2023/04/23 11:08:16;;;;;;;5.28;2.17;;;;;;;;;;5072343;28;20916;-66
2023/04/23 11:10:54;;;;;;;3.92;1.48;;;;;;;;;;5076679;28;20027;-64
2023/04/23 11:13:24;;;;;;;5.78;1.70;;;;;;;;;;5064167;28;20024;-63
2023/04/23 11:16:10;;;;;;;6.80;1.67;;;;;;;;;;5080103;28;20028;-64
2023/04/23 11:18:54;;;;;;;7.82;2.45;;;;;;;;;;5067937;28;20600;-62
2023/04/23 11:21:20;;;;;;;;;;;;;;;;;;5061853;28;20494;-63
2023/04/23 11:23:45;;;;;;;4.60;1.80;;;;;;;;;;5085684;28;19920;-63
2023/04/23 11:26:11;;;;;;;8.77;1.30;;;;;;;;;;5074662;28;20016;-63
2023/04/23 11:28:37;;;;;;;5.22;1.73;;;;;;;;;;5084552;28;20286;-64
2023/04/23 11:31:03;;;;;;;9.10;1.95;;;;;;;;;;5084079;28;20024;-64
2023/04/23 11:33:28;;;;;;;5.23;1.43;;;;;;;;;;5085922;28;20039;-66
2023/04/23 11:35:53;;;;;;;6.45;1.98;;;;;;;;;;5086712;28;20302;-66
2023/04/23 11:38:20;;;;;;;3.05;1.52;;;;;;;;;;5084668;28;20478;-67
2023/04/23 11:40:45;;;;;;;4.97;1.60;;;;;;;;;;5087612;28;20063;-66
2023/04/23 11:43:17;;;;;;;4.32;1.88;;;;;;;;;;5074107;28;20127;-65
2023/04/23 11:45:43;;;;;;;5.22;2.15;;;;;;;;;;5054043;28;20139;-64
2023/04/23 11:48:09;;;;;;;5.55;2.10;;;;;;;;;;5064166;28;20386;-64
2023/04/23 11:50:35;;;;;;;7.25;1.95;;;;;;;;;;5065431;28;20166;-64
2023/04/23 11:53:10;;;;;;;4.30;1.58;;;;;;;;;;5087344;28;20470;-63
2023/04/23 11:55:35;;;;;;;6.10;1.73;;;;;;;;;;5057756;28;20032;-64
2023/04/23 11:58:02;;;;;;;4.65;1.98;;;;;;;;;;5067899;28;20028;-64
2023/04/23 12:00:27;;;;;;;3.20;1.50;;;;;;;;;;5060876;28;20078;-65
2023/04/23 12:02:56;;;;;;;4.78;1.95;;;;;;;;;;5064132;28;20242;-65
2023/04/23 12:05:22;;;;;;;5.25;1.48;;;;;;;;;;5056774;28;20023;-64
2023/04/23 12:07:49;;;;;;;3.38;1.77;;;;;;;;;;5052257;28;20040;-65
2023/04/23 12:10:18;;;;;;;7.50;1.80;;;;;;;;;;5056565;28;20020;-65
2023/04/23 12:12:47;;;;;;;3.47;1.70;;;;;;;;;;5079693;28;20020;-65
2023/04/23 12:15:12;;;;;;;5.85;1.73;;;;;;;;;;5083598;28;20039;-65
2023/04/23 12:17:38;;;;;;;5.13;2.33;;;;;;;;;;5089511;28;20028;-66
2023/04/23 12:20:05;;;;;;;3.58;1.50;;;;;;;;;;5085203;28;20317;-65
2023/04/23 12:22:31;;;;;;;3.95;1.92;;;;;;;;;;5063882;28;20052;-65
2023/04/23 12:24:58;;;;;;;5.03;2.00;;;;;;;;;;5063451;28;20034;-65
2023/04/23 12:27:23;;;;;;;4.35;1.67;;;;;;;;;;5065985;28;20078;-65
2023/04/23 12:29:57;;;;;;;3.97;1.40;;;;;;;;;;5057342;28;20775;-66
2023/04/23 12:32:23;;;;;;;;;;;;;;;;;;5076506;28;20031;-65
2023/04/23 12:34:54;;;;;;;8.20;1.88;;;;;;;;;;5088492;28;19920;-65
2023/04/23 12:37:24;;;;;;;8.65;2.25;;;;;;;;;;5089381;28;20057;-65
2023/04/23 12:39:49;;;;;;;5.60;2.55;;;;;;;;;;5080563;28;20099;-66
2023/04/23 12:42:14;;;;;;;4.73;1.70;;;;;;;;;;5060308;28;20024;-66
2023/04/23 12:44:39;;;;;;;5.63;2.13;;;;;;;;;;5039525;28;20369;-65
2023/04/23 12:47:06;;;;;;;4.65;2.20;;;;;;;;;;5045584;28;21187;-65
2023/04/23 12:49:32;;;;;;;3.53;1.40;;;;;;;;;;5040186;28;20028;-65
2023/04/23 12:52:00;;;;;;;4.25;1.83;;;;;;;;;;5056941;28;20039;-65
2023/04/23 12:54:25;;;;;;;4.88;1.55;;;;;;;;;;5092582;28;20024;-65
2023/04/23 12:56:51;;;;;;;4.80;1.88;;;;;;;;;;5063212;28;20039;-64
2023/04/23 12:59:17;;;;;;;5.50;2.55;;;;;;;;;;5046097;28;20890;-65
2023/04/23 13:01:42;;;;;;;5.35;2.15;;;;;;;;;;5022800;28;20055;-63
2023/04/23 13:04:07;;;;;;;3.45;1.80;;;;;;;;;;5070778;28;20085;-65
2023/04/23 13:06:32;;;;;;;4.18;1.75;;;;;;;;;;5092769;28;20057;-65
2023/04/23 13:09:01;;;;;;;7.55;1.90;;;;;;;;;;5064220;28;20061;-65
2023/04/23 13:11:26;;;;;;;4.30;1.48;;;;;;;;;;5032242;28;20051;-65
2023/04/23 13:13:51;;;;;;;8.95;2.28;;;;;;;;;;5086658;28;20481;-65
2023/04/23 13:16:17;;;;;;;4.90;1.98;;;;;;;;;;5092143;28;20028;-65
2023/04/23 13:18:42;;;;;;;4.07;1.48;;;;;;;;;;5091298;28;20053;-63
2023/04/23 13:21:08;;;;;;;5.97;1.70;;;;;;;;;;5092891;28;20382;-63
2023/04/23 13:23:34;;;;;;;3.30;1.38;;;;;;;;;;5088287;28;20274;-64
2023/04/23 13:25:59;;;;;;;5.10;1.52;;;;;;;;;;5092397;28;20496;-63
2023/04/23 13:28:25;;;;;;;3.88;1.48;;;;;;;;;;5091936;28;20019;-63
2023/04/23 13:30:50;;;;;;;5.80;2.00;;;;;;;;;;5091613;28;20502;-65
2023/04/23 13:33:15;;;;;;;4.63;1.70;;;;;;;;;;5092171;28;20066;-64
2023/04/23 13:35:41;;;;;;;3.33;1.05;;;;;;;;;;5092245;28;20032;-64
2023/04/23 13:38:06;;;;;;;4.25;1.58;;;;;;;;;;5072728;28;20035;-64
2023/04/23 13:40:31;;;;;;;3.22;1.27;;;;;;;;;;5063611;28;20032;-64
2023/04/23 13:42:56;;;;;;;9.55;2.10;;;;;;;;;;5074427;28;20103;-64
2023/04/23 13:45:22;;;;;;;3.42;1.58;;;;;;;;;;5091911;28;20391;-65
2023/04/23 13:47:47;;;;;;;4.20;1.42;;;;;;;;;;5090838;28;20039;-69
2023/04/23 13:50:12;;;;;;;3.40;1.30;;;;;;;;;;5091253;28;20036;-66
2023/04/23 13:52:38;;;;;;;2.65;1.33;;;;;;;;;;5084723;28;20016;-64
2023/04/23 13:55:06;;;;;;;3.30;1.70;;;;;;;;;;5085050;28;20063;-65
2023/04/23 13:57:31;;;;;;;6.90;2.35;;;;;;;;;;5057640;28;20029;-65
2023/04/23 13:59:57;;;;;;;4.07;1.23;;;;;;;;;;5087490;28;20024;-65
2023/04/23 14:02:22;;;;;;;6.15;2.03;;;;;;;;;;5083690;28;20776;-66
2023/04/23 14:04:48;;;;;;;4.38;1.77;;;;;;;;;;5089391;28;20036;-66
2023/04/23 14:07:13;;;;;;;4.05;1.77;;;;;;;;;;5037150;28;20079;-66
2023/04/23 14:09:38;;;;;;;3.10;1.60;;;;;;;;;;5044563;28;20143;-67
2023/04/23 14:12:04;;;;;;;3.78;1.67;;;;;;;;;;5065597;28;20028;-65
2023/04/23 14:14:29;;;;;;;3.67;1.50;;;;;;;;;;5089756;28;20104;-65
2023/04/23 14:16:54;;;;;;;4.55;1.65;;;;;;;;;;5091542;28;20032;-67
2023/04/23 14:19:20;;;;;;;7.40;1.83;;;;;;;;;;5082224;28;20110;-67
2023/04/23 14:21:45;;;;;;;3.28;1.50;;;;;;;;;;5090230;28;20474;-63
2023/04/23 14:24:36;;;;;;;4.47;1.70;;;;;;;;;;5090974;28;20042;-64